Hlavní strana
METAR-TAF:

METAR-TAF

Letiště :

Bahrajn, Bahrajn

zeměpisná šířka: 26-16N, zeměpisná délka: 050-39E, výška: 2 m

Aktuální stav počasí

Zpráva byla vytvořena před 22 minutami, v 00:00 UTC
Západoseverozápadní vítr 7 kt
Teplota 21°C
Vlhkost vzduchu 49%
Tlak 1019 hPa
Viditelnost 10 km a více
Žádná oblačnost pod 1500 m, nevyskytují se cumulonimby.

METAR: OBBI 230000Z 29007KT CAVOK 21/10 Q1019 NOSIG

Čas: 03:22 (00:22 UTC)

Předpověď počasí

Zpráva byla vytvořena před 1 hodinou a 22 minutami, v 23:00 UTC
Předpověď platná od 23 v 00 UTC do 24 v 06 UTC
Severoseverozápadní vítr 7 kt
Viditelnost 10 km a více
Skoro jasno ve výšce 3000 ft

TAF: OBBI 222300Z 2300/2406 33007KT 9999 FEW030

Stav a předpovědi počasí z více než 4 000 letišť (zprávy METAR a TAF).

Červené a žluté tečky na mapě představují dostupné meteorologické stanice.

Když kurzor umístíte na tečku, zobrazí se název stanice.

Pak kliknutím zobrazíte stav a předpověď počasí.

Chcete-li změnit mapu, kliknutím na zelené tlačítko se znaménkem +mapu přiblížíte, kliknutím na zelené tlačítko se znaménkem – mapu oddálíte a kliknutím na zelené šipky přejdete na sousední mapy.


METAR-TAF: